sensor_id;sensor_type;location;lat;lon;timestamp;P1;durP1;ratioP1;P2;durP2;ratioP2
10260;SDS011;5175;42.606;23.388;2023-03-13T00:01:29;9.13;;;7.33;;
10260;SDS011;5175;42.606;23.388;2023-03-13T00:03:57;8.97;;;6.47;;
10260;SDS011;5175;42.606;23.388;2023-03-13T00:06:24;8.23;;;6.80;;
10260;SDS011;5175;42.606;23.388;2023-03-13T00:08:54;8.40;;;6.60;;
10260;SDS011;5175;42.606;23.388;2023-03-13T00:11:20;8.07;;;5.80;;
10260;SDS011;5175;42.606;23.388;2023-03-13T00:13:47;8.30;;;6.60;;
10260;SDS011;5175;42.606;23.388;2023-03-13T00:16:14;8.10;;;6.57;;
10260;SDS011;5175;42.606;23.388;2023-03-13T00:18:45;8.47;;;6.37;;
10260;SDS011;5175;42.606;23.388;2023-03-13T00:21:12;9.10;;;6.13;;
10260;SDS011;5175;42.606;23.388;2023-03-13T00:23:39;6.13;;;5.20;;
10260;SDS011;5175;42.606;23.388;2023-03-13T00:26:08;8.40;;;6.17;;
10260;SDS011;5175;42.606;23.388;2023-03-13T00:28:36;7.97;;;6.20;;
10260;SDS011;5175;42.606;23.388;2023-03-13T00:31:05;6.60;;;5.17;;
10260;SDS011;5175;42.606;23.388;2023-03-13T00:33:33;5.73;;;5.13;;
10260;SDS011;5175;42.606;23.388;2023-03-13T00:36:02;7.03;;;4.87;;
10260;SDS011;5175;42.606;23.388;2023-03-13T00:38:30;6.90;;;5.20;;
10260;SDS011;5175;42.606;23.388;2023-03-13T00:40:58;6.83;;;5.23;;
10260;SDS011;5175;42.606;23.388;2023-03-13T00:43:27;7.13;;;6.43;;
10260;SDS011;5175;42.606;23.388;2023-03-13T00:45:54;6.90;;;5.87;;
10260;SDS011;5175;42.606;23.388;2023-03-13T00:48:21;7.03;;;5.77;;
10260;SDS011;5175;42.606;23.388;2023-03-13T00:50:48;7.63;;;5.40;;
10260;SDS011;5175;42.606;23.388;2023-03-13T00:53:15;8.47;;;5.77;;
10260;SDS011;5175;42.606;23.388;2023-03-13T00:55:50;6.73;;;5.20;;
10260;SDS011;5175;42.606;23.388;2023-03-13T00:58:18;11.00;;;7.00;;
10260;SDS011;5175;42.606;23.388;2023-03-13T01:00:46;11.77;;;7.80;;
10260;SDS011;5175;42.606;23.388;2023-03-13T01:03:13;10.87;;;7.50;;
10260;SDS011;5175;42.606;23.388;2023-03-13T01:05:40;14.93;;;9.53;;
10260;SDS011;5175;42.606;23.388;2023-03-13T01:08:07;11.80;;;8.23;;
10260;SDS011;5175;42.606;23.388;2023-03-13T01:10:34;17.30;;;11.03;;
10260;SDS011;5175;42.606;23.388;2023-03-13T01:13:01;28.10;;;17.77;;
10260;SDS011;5175;42.606;23.388;2023-03-13T01:15:28;9.73;;;7.07;;
10260;SDS011;5175;42.606;23.388;2023-03-13T01:17:57;8.53;;;5.53;;
10260;SDS011;5175;42.606;23.388;2023-03-13T01:20:23;9.53;;;6.67;;
10260;SDS011;5175;42.606;23.388;2023-03-13T01:22:50;9.47;;;7.33;;
10260;SDS011;5175;42.606;23.388;2023-03-13T01:25:17;6.23;;;4.93;;
10260;SDS011;5175;42.606;23.388;2023-03-13T01:27:43;7.10;;;5.23;;
10260;SDS011;5175;42.606;23.388;2023-03-13T01:30:10;6.77;;;5.07;;
10260;SDS011;5175;42.606;23.388;2023-03-13T01:32:37;6.70;;;5.50;;
10260;SDS011;5175;42.606;23.388;2023-03-13T01:35:06;5.40;;;4.57;;
10260;SDS011;5175;42.606;23.388;2023-03-13T01:37:33;7.83;;;5.90;;
10260;SDS011;5175;42.606;23.388;2023-03-13T01:40:00;8.70;;;6.93;;
10260;SDS011;5175;42.606;23.388;2023-03-13T01:42:26;9.43;;;6.67;;
10260;SDS011;5175;42.606;23.388;2023-03-13T01:44:54;6.37;;;4.87;;
10260;SDS011;5175;42.606;23.388;2023-03-13T01:47:22;5.80;;;4.40;;
10260;SDS011;5175;42.606;23.388;2023-03-13T01:49:49;5.40;;;4.57;;
10260;SDS011;5175;42.606;23.388;2023-03-13T01:52:19;5.90;;;4.63;;
10260;SDS011;5175;42.606;23.388;2023-03-13T01:54:49;5.93;;;4.53;;
10260;SDS011;5175;42.606;23.388;2023-03-13T01:57:21;5.93;;;4.30;;
10260;SDS011;5175;42.606;23.388;2023-03-13T01:59:51;7.67;;;5.73;;
10260;SDS011;5175;42.606;23.388;2023-03-13T02:02:22;7.07;;;4.87;;
10260;SDS011;5175;42.606;23.388;2023-03-13T02:04:51;6.33;;;5.17;;
10260;SDS011;5175;42.606;23.388;2023-03-13T02:07:25;7.23;;;5.80;;
10260;SDS011;5175;42.606;23.388;2023-03-13T02:09:56;5.30;;;4.73;;
10260;SDS011;5175;42.606;23.388;2023-03-13T02:12:25;6.50;;;4.80;;
10260;SDS011;5175;42.606;23.388;2023-03-13T02:14:56;5.63;;;4.93;;
10260;SDS011;5175;42.606;23.388;2023-03-13T02:17:28;6.93;;;4.97;;
10260;SDS011;5175;42.606;23.388;2023-03-13T02:19:55;5.23;;;4.67;;
10260;SDS011;5175;42.606;23.388;2023-03-13T02:22:25;5.10;;;4.57;;
10260;SDS011;5175;42.606;23.388;2023-03-13T02:24:57;6.57;;;4.67;;
10260;SDS011;5175;42.606;23.388;2023-03-13T02:27:36;5.30;;;4.20;;
10260;SDS011;5175;42.606;23.388;2023-03-13T02:30:03;4.03;;;3.63;;
10260;SDS011;5175;42.606;23.388;2023-03-13T02:32:34;4.47;;;4.07;;
10260;SDS011;5175;42.606;23.388;2023-03-13T02:35:02;4.33;;;3.40;;
10260;SDS011;5175;42.606;23.388;2023-03-13T02:37:32;3.60;;;3.30;;
10260;SDS011;5175;42.606;23.388;2023-03-13T02:40:00;4.77;;;3.33;;
10260;SDS011;5175;42.606;23.388;2023-03-13T02:42:33;3.43;;;3.13;;
10260;SDS011;5175;42.606;23.388;2023-03-13T02:45:04;4.47;;;3.90;;
10260;SDS011;5175;42.606;23.388;2023-03-13T02:47:31;3.83;;;3.43;;
10260;SDS011;5175;42.606;23.388;2023-03-13T02:49:58;4.53;;;4.00;;
10260;SDS011;5175;42.606;23.388;2023-03-13T02:52:25;5.93;;;4.43;;
10260;SDS011;5175;42.606;23.388;2023-03-13T02:54:55;4.97;;;4.33;;
10260;SDS011;5175;42.606;23.388;2023-03-13T02:57:25;4.83;;;4.00;;
10260;SDS011;5175;42.606;23.388;2023-03-13T02:59:54;5.37;;;4.50;;
10260;SDS011;5175;42.606;23.388;2023-03-13T03:02:21;5.00;;;4.27;;
10260;SDS011;5175;42.606;23.388;2023-03-13T03:04:48;5.17;;;4.40;;
10260;SDS011;5175;42.606;23.388;2023-03-13T03:07:15;4.97;;;4.40;;
10260;SDS011;5175;42.606;23.388;2023-03-13T03:09:41;4.80;;;4.03;;
10260;SDS011;5175;42.606;23.388;2023-03-13T03:12:08;4.37;;;3.80;;
10260;SDS011;5175;42.606;23.388;2023-03-13T03:14:35;4.77;;;3.90;;
10260;SDS011;5175;42.606;23.388;2023-03-13T03:17:04;5.10;;;4.27;;
10260;SDS011;5175;42.606;23.388;2023-03-13T03:19:30;4.43;;;3.90;;
10260;SDS011;5175;42.606;23.388;2023-03-13T03:21:57;4.40;;;4.00;;
10260;SDS011;5175;42.606;23.388;2023-03-13T03:24:24;4.70;;;4.17;;
10260;SDS011;5175;42.606;23.388;2023-03-13T03:26:50;4.77;;;4.00;;
10260;SDS011;5175;42.606;23.388;2023-03-13T03:29:17;4.27;;;3.87;;
10260;SDS011;5175;42.606;23.388;2023-03-13T03:31:44;4.67;;;4.10;;
10260;SDS011;5175;42.606;23.388;2023-03-13T03:34:12;6.47;;;4.73;;
10260;SDS011;5175;42.606;23.388;2023-03-13T03:36:39;5.60;;;4.90;;
10260;SDS011;5175;42.606;23.388;2023-03-13T03:39:06;5.13;;;4.10;;
10260;SDS011;5175;42.606;23.388;2023-03-13T03:41:33;6.10;;;4.30;;
10260;SDS011;5175;42.606;23.388;2023-03-13T03:43:59;5.57;;;4.87;;
10260;SDS011;5175;42.606;23.388;2023-03-13T03:46:26;8.27;;;5.47;;
10260;SDS011;5175;42.606;23.388;2023-03-13T03:48:53;5.90;;;4.77;;
10260;SDS011;5175;42.606;23.388;2023-03-13T03:51:21;6.43;;;5.23;;
10260;SDS011;5175;42.606;23.388;2023-03-13T03:53:48;7.40;;;5.30;;
10260;SDS011;5175;42.606;23.388;2023-03-13T03:56:14;15.87;;;11.07;;
10260;SDS011;5175;42.606;23.388;2023-03-13T03:58:41;9.27;;;6.33;;
10260;SDS011;5175;42.606;23.388;2023-03-13T04:01:08;6.33;;;5.20;;
10260;SDS011;5175;42.606;23.388;2023-03-13T04:03:34;5.77;;;4.93;;
10260;SDS011;5175;42.606;23.388;2023-03-13T04:06:01;5.57;;;4.87;;
10260;SDS011;5175;42.606;23.388;2023-03-13T04:08:29;5.80;;;4.80;;
10260;SDS011;5175;42.606;23.388;2023-03-13T04:10:56;5.63;;;4.87;;
10260;SDS011;5175;42.606;23.388;2023-03-13T04:13:23;6.03;;;5.13;;
10260;SDS011;5175;42.606;23.388;2023-03-13T04:15:49;5.27;;;4.77;;
10260;SDS011;5175;42.606;23.388;2023-03-13T04:18:16;5.73;;;4.60;;
10260;SDS011;5175;42.606;23.388;2023-03-13T04:20:43;5.90;;;4.93;;
10260;SDS011;5175;42.606;23.388;2023-03-13T04:23:09;5.07;;;3.93;;
10260;SDS011;5175;42.606;23.388;2023-03-13T04:25:38;5.47;;;4.57;;
10260;SDS011;5175;42.606;23.388;2023-03-13T04:28:04;5.40;;;4.90;;
10260;SDS011;5175;42.606;23.388;2023-03-13T04:30:31;6.07;;;4.43;;
10260;SDS011;5175;42.606;23.388;2023-03-13T04:32:58;5.93;;;4.53;;
10260;SDS011;5175;42.606;23.388;2023-03-13T04:35:24;5.07;;;4.50;;
10260;SDS011;5175;42.606;23.388;2023-03-13T04:37:51;5.43;;;4.50;;
10260;SDS011;5175;42.606;23.388;2023-03-13T04:40:18;6.53;;;5.03;;
10260;SDS011;5175;42.606;23.388;2023-03-13T04:42:46;7.37;;;5.53;;
10260;SDS011;5175;42.606;23.388;2023-03-13T04:45:13;6.13;;;4.90;;
10260;SDS011;5175;42.606;23.388;2023-03-13T04:47:39;5.07;;;4.40;;
10260;SDS011;5175;42.606;23.388;2023-03-13T04:50:06;10.70;;;8.47;;
10260;SDS011;5175;42.606;23.388;2023-03-13T04:52:33;7.93;;;6.57;;
10260;SDS011;5175;42.606;23.388;2023-03-13T04:55:00;6.90;;;6.13;;
10260;SDS011;5175;42.606;23.388;2023-03-13T04:57:27;7.13;;;6.40;;
10260;SDS011;5175;42.606;23.388;2023-03-13T04:59:55;7.90;;;6.20;;
10260;SDS011;5175;42.606;23.388;2023-03-13T05:02:22;8.07;;;6.77;;
10260;SDS011;5175;42.606;23.388;2023-03-13T05:04:49;9.73;;;7.73;;
10260;SDS011;5175;42.606;23.388;2023-03-13T05:07:15;9.17;;;7.27;;
10260;SDS011;5175;42.606;23.388;2023-03-13T05:09:42;8.07;;;7.07;;
10260;SDS011;5175;42.606;23.388;2023-03-13T05:12:09;7.10;;;6.20;;
10260;SDS011;5175;42.606;23.388;2023-03-13T05:14:35;8.40;;;7.37;;
10260;SDS011;5175;42.606;23.388;2023-03-13T05:17:03;8.47;;;7.50;;
10260;SDS011;5175;42.606;23.388;2023-03-13T05:19:30;12.77;;;8.40;;
10260;SDS011;5175;42.606;23.388;2023-03-13T05:21:57;14.03;;;10.80;;
10260;SDS011;5175;42.606;23.388;2023-03-13T05:24:24;14.00;;;10.47;;
10260;SDS011;5175;42.606;23.388;2023-03-13T05:26:50;8.03;;;6.50;;
10260;SDS011;5175;42.606;23.388;2023-03-13T05:29:17;7.00;;;5.50;;
10260;SDS011;5175;42.606;23.388;2023-03-13T05:31:44;6.50;;;5.30;;
10260;SDS011;5175;42.606;23.388;2023-03-13T05:34:12;6.57;;;5.87;;
10260;SDS011;5175;42.606;23.388;2023-03-13T05:36:38;7.73;;;6.03;;
10260;SDS011;5175;42.606;23.388;2023-03-13T05:39:05;8.93;;;7.20;;
10260;SDS011;5175;42.606;23.388;2023-03-13T05:41:32;13.40;;;7.00;;
10260;SDS011;5175;42.606;23.388;2023-03-13T05:43:58;10.23;;;7.10;;
10260;SDS011;5175;42.606;23.388;2023-03-13T05:46:25;8.93;;;6.57;;
10260;SDS011;5175;42.606;23.388;2023-03-13T05:48:52;9.53;;;7.37;;
10260;SDS011;5175;42.606;23.388;2023-03-13T05:51:20;9.90;;;7.50;;
10260;SDS011;5175;42.606;23.388;2023-03-13T05:53:46;10.47;;;6.53;;
10260;SDS011;5175;42.606;23.388;2023-03-13T05:56:13;7.50;;;6.43;;
10260;SDS011;5175;42.606;23.388;2023-03-13T05:58:40;9.00;;;7.07;;
10260;SDS011;5175;42.606;23.388;2023-03-13T06:01:07;8.27;;;6.83;;
10260;SDS011;5175;42.606;23.388;2023-03-13T06:03:35;9.37;;;7.00;;
10260;SDS011;5175;42.606;23.388;2023-03-13T06:06:01;10.40;;;7.07;;
10260;SDS011;5175;42.606;23.388;2023-03-13T06:08:30;9.17;;;7.37;;
10260;SDS011;5175;42.606;23.388;2023-03-13T06:10:57;9.97;;;7.57;;
10260;SDS011;5175;42.606;23.388;2023-03-13T06:13:25;9.17;;;6.80;;
10260;SDS011;5175;42.606;23.388;2023-03-13T06:15:52;7.40;;;6.30;;
10260;SDS011;5175;42.606;23.388;2023-03-13T06:18:19;7.90;;;6.10;;
10260;SDS011;5175;42.606;23.388;2023-03-13T06:20:47;8.63;;;5.97;;
10260;SDS011;5175;42.606;23.388;2023-03-13T06:23:14;6.77;;;6.07;;
10260;SDS011;5175;42.606;23.388;2023-03-13T06:25:42;7.40;;;6.07;;
10260;SDS011;5175;42.606;23.388;2023-03-13T06:28:12;7.83;;;5.90;;
10260;SDS011;5175;42.606;23.388;2023-03-13T06:30:39;8.20;;;6.07;;
10260;SDS011;5175;42.606;23.388;2023-03-13T06:33:06;7.13;;;6.03;;
10260;SDS011;5175;42.606;23.388;2023-03-13T06:35:32;6.50;;;5.50;;
10260;SDS011;5175;42.606;23.388;2023-03-13T06:37:59;7.73;;;5.40;;
10260;SDS011;5175;42.606;23.388;2023-03-13T06:40:26;6.77;;;6.07;;
10260;SDS011;5175;42.606;23.388;2023-03-13T06:42:54;7.67;;;6.80;;
10260;SDS011;5175;42.606;23.388;2023-03-13T06:45:21;7.33;;;6.53;;
10260;SDS011;5175;42.606;23.388;2023-03-13T06:47:47;7.63;;;6.27;;
10260;SDS011;5175;42.606;23.388;2023-03-13T06:50:15;9.70;;;7.37;;
10260;SDS011;5175;42.606;23.388;2023-03-13T06:52:42;8.57;;;6.80;;
10260;SDS011;5175;42.606;23.388;2023-03-13T06:55:09;8.57;;;6.27;;
10260;SDS011;5175;42.606;23.388;2023-03-13T06:57:37;6.67;;;5.97;;
10260;SDS011;5175;42.606;23.388;2023-03-13T07:00:06;7.57;;;6.77;;
10260;SDS011;5175;42.606;23.388;2023-03-13T07:02:35;6.97;;;6.27;;
10260;SDS011;5175;42.606;23.388;2023-03-13T07:05:02;6.47;;;5.60;;
10260;SDS011;5175;42.606;23.388;2023-03-13T07:07:30;6.10;;;5.50;;
10260;SDS011;5175;42.606;23.388;2023-03-13T07:09:57;6.03;;;5.47;;
10260;SDS011;5175;42.606;23.388;2023-03-13T07:12:23;6.70;;;6.00;;
10260;SDS011;5175;42.606;23.388;2023-03-13T07:14:50;7.63;;;6.63;;
10260;SDS011;5175;42.606;23.388;2023-03-13T07:17:18;7.60;;;6.80;;
10260;SDS011;5175;42.606;23.388;2023-03-13T07:19:45;7.90;;;6.83;;
10260;SDS011;5175;42.606;23.388;2023-03-13T07:22:12;7.57;;;6.47;;
10260;SDS011;5175;42.606;23.388;2023-03-13T07:24:38;8.07;;;6.97;;
10260;SDS011;5175;42.606;23.388;2023-03-13T07:27:05;7.57;;;6.70;;
10260;SDS011;5175;42.606;23.388;2023-03-13T07:29:32;8.10;;;6.90;;
10260;SDS011;5175;42.606;23.388;2023-03-13T07:31:58;9.77;;;7.10;;
10260;SDS011;5175;42.606;23.388;2023-03-13T07:34:26;8.73;;;7.67;;
10260;SDS011;5175;42.606;23.388;2023-03-13T07:36:53;8.80;;;7.67;;
10260;SDS011;5175;42.606;23.388;2023-03-13T07:39:20;11.53;;;7.10;;
10260;SDS011;5175;42.606;23.388;2023-03-13T07:41:47;8.53;;;7.20;;
10260;SDS011;5175;42.606;23.388;2023-03-13T07:44:13;8.57;;;7.33;;
10260;SDS011;5175;42.606;23.388;2023-03-13T07:46:40;10.00;;;8.33;;
10260;SDS011;5175;42.606;23.388;2023-03-13T07:49:07;11.20;;;7.27;;
10260;SDS011;5175;42.606;23.388;2023-03-13T07:51:35;9.87;;;7.37;;
10260;SDS011;5175;42.606;23.388;2023-03-13T07:54:02;9.37;;;7.17;;
10260;SDS011;5175;42.606;23.388;2023-03-13T07:56:28;8.77;;;7.40;;
10260;SDS011;5175;42.606;23.388;2023-03-13T07:58:55;13.00;;;8.83;;
10260;SDS011;5175;42.606;23.388;2023-03-13T08:01:22;9.70;;;8.70;;
10260;SDS011;5175;42.606;23.388;2023-03-13T08:03:50;12.27;;;9.27;;
10260;SDS011;5175;42.606;23.388;2023-03-13T08:06:19;11.87;;;9.37;;
10260;SDS011;5175;42.606;23.388;2023-03-13T08:08:48;11.03;;;9.40;;
10260;SDS011;5175;42.606;23.388;2023-03-13T08:11:16;13.43;;;9.37;;
10260;SDS011;5175;42.606;23.388;2023-03-13T08:13:44;12.27;;;10.07;;
10260;SDS011;5175;42.606;23.388;2023-03-13T08:16:12;11.30;;;10.10;;
10260;SDS011;5175;42.606;23.388;2023-03-13T08:18:41;11.47;;;10.33;;
10260;SDS011;5175;42.606;23.388;2023-03-13T08:21:11;11.27;;;10.17;;
10260;SDS011;5175;42.606;23.388;2023-03-13T08:23:39;10.13;;;9.03;;
10260;SDS011;5175;42.606;23.388;2023-03-13T08:26:08;11.43;;;10.23;;
10260;SDS011;5175;42.606;23.388;2023-03-13T08:28:37;11.27;;;10.03;;
10260;SDS011;5175;42.606;23.388;2023-03-13T08:31:08;11.13;;;9.23;;
10260;SDS011;5175;42.606;23.388;2023-03-13T08:33:35;10.57;;;9.47;;
10260;SDS011;5175;42.606;23.388;2023-03-13T08:36:09;9.80;;;8.83;;
10260;SDS011;5175;42.606;23.388;2023-03-13T08:38:37;10.20;;;9.10;;
10260;SDS011;5175;42.606;23.388;2023-03-13T08:41:07;14.37;;;9.33;;
10260;SDS011;5175;42.606;23.388;2023-03-13T08:43:34;10.50;;;9.20;;
10260;SDS011;5175;42.606;23.388;2023-03-13T08:46:01;11.20;;;10.00;;
10260;SDS011;5175;42.606;23.388;2023-03-13T08:48:27;11.43;;;10.33;;
10260;SDS011;5175;42.606;23.388;2023-03-13T08:51:01;11.67;;;9.80;;
10260;SDS011;5175;42.606;23.388;2023-03-13T08:53:29;12.17;;;10.20;;
10260;SDS011;5175;42.606;23.388;2023-03-13T08:55:56;14.83;;;10.40;;
10260;SDS011;5175;42.606;23.388;2023-03-13T08:58:24;15.40;;;13.77;;
10260;SDS011;5175;42.606;23.388;2023-03-13T09:00:51;16.50;;;11.00;;
10260;SDS011;5175;42.606;23.388;2023-03-13T09:03:17;13.83;;;10.67;;
10260;SDS011;5175;42.606;23.388;2023-03-13T09:05:44;12.07;;;10.87;;
10260;SDS011;5175;42.606;23.388;2023-03-13T09:08:12;13.13;;;11.20;;
10260;SDS011;5175;42.606;23.388;2023-03-13T09:10:39;14.20;;;11.63;;
10260;SDS011;5175;42.606;23.388;2023-03-13T09:13:05;13.33;;;10.70;;
10260;SDS011;5175;42.606;23.388;2023-03-13T09:15:34;14.30;;;11.93;;
10260;SDS011;5175;42.606;23.388;2023-03-13T09:18:01;12.23;;;11.03;;
10260;SDS011;5175;42.606;23.388;2023-03-13T09:20:27;13.57;;;11.50;;
10260;SDS011;5175;42.606;23.388;2023-03-13T09:22:54;13.30;;;11.50;;
10260;SDS011;5175;42.606;23.388;2023-03-13T09:25:21;13.00;;;11.50;;
10260;SDS011;5175;42.606;23.388;2023-03-13T09:27:47;13.40;;;11.43;;
10260;SDS011;5175;42.606;23.388;2023-03-13T09:30:14;13.43;;;11.53;;
10260;SDS011;5175;42.606;23.388;2023-03-13T09:32:42;15.43;;;11.73;;
10260;SDS011;5175;42.606;23.388;2023-03-13T09:35:09;15.97;;;11.53;;
10260;SDS011;5175;42.606;23.388;2023-03-13T09:37:36;13.33;;;12.03;;
10260;SDS011;5175;42.606;23.388;2023-03-13T09:40:03;14.20;;;11.93;;
10260;SDS011;5175;42.606;23.388;2023-03-13T09:42:34;12.77;;;11.20;;
10260;SDS011;5175;42.606;23.388;2023-03-13T09:45:12;12.73;;;11.40;;
10260;SDS011;5175;42.606;23.388;2023-03-13T09:47:43;12.17;;;10.43;;
10260;SDS011;5175;42.606;23.388;2023-03-13T09:50:14;13.83;;;11.97;;
10260;SDS011;5175;42.606;23.388;2023-03-13T09:52:44;13.33;;;11.60;;
10260;SDS011;5175;42.606;23.388;2023-03-13T09:55:16;12.93;;;11.53;;
10260;SDS011;5175;42.606;23.388;2023-03-13T09:57:48;19.83;;;11.77;;
10260;SDS011;5175;42.606;23.388;2023-03-13T10:00:20;13.30;;;10.87;;
10260;SDS011;5175;42.606;23.388;2023-03-13T10:02:53;14.43;;;11.00;;
10260;SDS011;5175;42.606;23.388;2023-03-13T10:05:22;12.47;;;11.27;;
10260;SDS011;5175;42.606;23.388;2023-03-13T10:07:52;12.80;;;11.50;;
10260;SDS011;5175;42.606;23.388;2023-03-13T10:10:24;12.97;;;11.50;;
10260;SDS011;5175;42.606;23.388;2023-03-13T10:13:02;14.70;;;11.60;;
10260;SDS011;5175;42.606;23.388;2023-03-13T10:15:41;12.20;;;11.00;;
10260;SDS011;5175;42.606;23.388;2023-03-13T10:18:17;15.57;;;11.07;;
10260;SDS011;5175;42.606;23.388;2023-03-13T10:20:46;12.10;;;10.90;;
10260;SDS011;5175;42.606;23.388;2023-03-13T10:23:17;14.23;;;11.33;;
10260;SDS011;5175;42.606;23.388;2023-03-13T10:25:47;11.43;;;10.33;;
10260;SDS011;5175;42.606;23.388;2023-03-13T10:28:14;11.63;;;10.43;;
10260;SDS011;5175;42.606;23.388;2023-03-13T10:30:45;12.10;;;10.90;;
10260;SDS011;5175;42.606;23.388;2023-03-13T10:33:24;12.87;;;10.90;;
10260;SDS011;5175;42.606;23.388;2023-03-13T10:35:58;11.90;;;10.70;;
10260;SDS011;5175;42.606;23.388;2023-03-13T10:38:27;12.47;;;11.27;;
10260;SDS011;5175;42.606;23.388;2023-03-13T10:40:56;11.13;;;10.03;;
10260;SDS011;5175;42.606;23.388;2023-03-13T10:43:26;11.47;;;9.73;;
10260;SDS011;5175;42.606;23.388;2023-03-13T10:45:54;11.13;;;9.77;;
10260;SDS011;5175;42.606;23.388;2023-03-13T10:48:22;11.33;;;10.23;;
10260;SDS011;5175;42.606;23.388;2023-03-13T10:50:53;14.23;;;9.60;;
10260;SDS011;5175;42.606;23.388;2023-03-13T10:53:25;10.57;;;9.50;;
10260;SDS011;5175;42.606;23.388;2023-03-13T10:55:59;10.43;;;8.93;;
10260;SDS011;5175;42.606;23.388;2023-03-13T10:58:34;10.90;;;9.20;;
10260;SDS011;5175;42.606;23.388;2023-03-13T11:01:13;10.60;;;9.47;;
10260;SDS011;5175;42.606;23.388;2023-03-13T11:03:44;12.13;;;9.60;;
10260;SDS011;5175;42.606;23.388;2023-03-13T11:06:22;13.23;;;9.67;;
10260;SDS011;5175;42.606;23.388;2023-03-13T11:08:57;9.90;;;8.90;;
10260;SDS011;5175;42.606;23.388;2023-03-13T11:11:28;9.70;;;8.80;;
10260;SDS011;5175;42.606;23.388;2023-03-13T11:14:06;10.63;;;9.63;;
10260;SDS011;5175;42.606;23.388;2023-03-13T11:16:35;10.37;;;9.33;;
10260;SDS011;5175;42.606;23.388;2023-03-13T11:19:24;12.93;;;10.07;;
10260;SDS011;5175;42.606;23.388;2023-03-13T11:25:21;12.17;;;9.03;;
10260;SDS011;5175;42.606;23.388;2023-03-13T11:28:09;10.20;;;9.20;;
10260;SDS011;5175;42.606;23.388;2023-03-13T11:30:48;11.93;;;9.10;;
10260;SDS011;5175;42.606;23.388;2023-03-13T11:33:28;10.37;;;9.17;;
10260;SDS011;5175;42.606;23.388;2023-03-13T11:36:07;9.90;;;9.00;;
10260;SDS011;5175;42.606;23.388;2023-03-13T11:38:40;10.87;;;9.70;;
10260;SDS011;5175;42.606;23.388;2023-03-13T11:41:12;10.50;;;9.33;;
10260;SDS011;5175;42.606;23.388;2023-03-13T11:43:51;11.07;;;8.47;;
10260;SDS011;5175;42.606;23.388;2023-03-13T11:46:32;10.80;;;8.90;;
10260;SDS011;5175;42.606;23.388;2023-03-13T11:49:13;11.03;;;9.33;;
10260;SDS011;5175;42.606;23.388;2023-03-13T11:51:55;10.83;;;9.07;;
10260;SDS011;5175;42.606;23.388;2023-03-13T11:54:33;11.23;;;9.90;;
10260;SDS011;5175;42.606;23.388;2023-03-13T11:57:11;9.70;;;8.80;;
10260;SDS011;5175;42.606;23.388;2023-03-13T11:59:43;15.07;;;13.57;;
10260;SDS011;5175;42.606;23.388;2023-03-13T12:02:20;10.57;;;9.03;;
10260;SDS011;5175;42.606;23.388;2023-03-13T12:04:50;9.67;;;8.70;;
10260;SDS011;5175;42.606;23.388;2023-03-13T12:07:24;10.40;;;9.30;;
10260;SDS011;5175;42.606;23.388;2023-03-13T12:09:55;10.87;;;9.33;;
10260;SDS011;5175;42.606;23.388;2023-03-13T12:12:30;10.60;;;9.47;;
10260;SDS011;5175;42.606;23.388;2023-03-13T12:15:05;10.83;;;8.80;;
10260;SDS011;5175;42.606;23.388;2023-03-13T12:17:45;10.03;;;8.90;;
10260;SDS011;5175;42.606;23.388;2023-03-13T12:20:18;12.17;;;8.87;;
10260;SDS011;5175;42.606;23.388;2023-03-13T12:22:52;10.27;;;8.97;;
10260;SDS011;5175;42.606;23.388;2023-03-13T12:25:24;9.40;;;8.50;;
10260;SDS011;5175;42.606;23.388;2023-03-13T12:27:55;9.90;;;8.83;;
10260;SDS011;5175;42.606;23.388;2023-03-13T12:30:30;12.23;;;9.07;;
10260;SDS011;5175;42.606;23.388;2023-03-13T12:33:04;9.87;;;8.87;;
10260;SDS011;5175;42.606;23.388;2023-03-13T12:35:43;9.90;;;8.43;;
10260;SDS011;5175;42.606;23.388;2023-03-13T12:38:16;9.30;;;8.23;;
10260;SDS011;5175;42.606;23.388;2023-03-13T12:40:48;9.20;;;8.20;;
10260;SDS011;5175;42.606;23.388;2023-03-13T12:43:23;9.67;;;8.67;;
10260;SDS011;5175;42.606;23.388;2023-03-13T12:46:05;9.43;;;8.50;;
10260;SDS011;5175;42.606;23.388;2023-03-13T12:48:55;11.10;;;8.87;;
10260;SDS011;5175;42.606;23.388;2023-03-13T12:51:33;10.30;;;9.30;;
10260;SDS011;5175;42.606;23.388;2023-03-13T12:57:15;9.30;;;8.30;;
10260;SDS011;5175;42.606;23.388;2023-03-13T12:59:52;10.13;;;8.60;;
10260;SDS011;5175;42.606;23.388;2023-03-13T13:02:23;10.17;;;8.63;;
10260;SDS011;5175;42.606;23.388;2023-03-13T13:04:53;9.63;;;8.63;;
10260;SDS011;5175;42.606;23.388;2023-03-13T13:07:24;11.33;;;8.17;;
10260;SDS011;5175;42.606;23.388;2023-03-13T13:10:01;9.80;;;8.77;;
10260;SDS011;5175;42.606;23.388;2023-03-13T13:12:40;9.30;;;8.43;;
10260;SDS011;5175;42.606;23.388;2023-03-13T13:15:14;9.20;;;8.40;;
10260;SDS011;5175;42.606;23.388;2023-03-13T13:17:48;9.80;;;8.87;;
10260;SDS011;5175;42.606;23.388;2023-03-13T13:20:30;9.17;;;8.10;;
10260;SDS011;5175;42.606;23.388;2023-03-13T13:23:23;9.13;;;8.33;;
10260;SDS011;5175;42.606;23.388;2023-03-13T13:32:34;9.10;;;8.20;;
10260;SDS011;5175;42.606;23.388;2023-03-13T13:35:18;11.33;;;8.63;;
10260;SDS011;5175;42.606;23.388;2023-03-13T13:40:58;9.70;;;8.80;;
10260;SDS011;5175;42.606;23.388;2023-03-13T13:43:27;11.20;;;9.30;;
10260;SDS011;5175;42.606;23.388;2023-03-13T13:45:58;10.60;;;9.60;;
10260;SDS011;5175;42.606;23.388;2023-03-13T13:48:31;11.03;;;9.83;;
10260;SDS011;5175;42.606;23.388;2023-03-13T13:53:50;10.10;;;9.10;;
10260;SDS011;5175;42.606;23.388;2023-03-13T13:56:39;11.07;;;8.30;;
10260;SDS011;5175;42.606;23.388;2023-03-13T14:02:19;13.10;;;10.00;;
10260;SDS011;5175;42.606;23.388;2023-03-13T14:04:54;12.57;;;9.00;;
10260;SDS011;5175;42.606;23.388;2023-03-13T14:07:28;10.13;;;8.97;;
10260;SDS011;5175;42.606;23.388;2023-03-13T14:09:59;10.90;;;8.60;;
10260;SDS011;5175;42.606;23.388;2023-03-13T14:12:30;11.13;;;9.73;;
10260;SDS011;5175;42.606;23.388;2023-03-13T14:15:06;10.75;;;9.65;;
10260;SDS011;5175;42.606;23.388;2023-03-13T14:17:41;9.88;;;8.73;;
10260;SDS011;5175;42.606;23.388;2023-03-13T14:20:24;9.88;;;8.82;;
10260;SDS011;5175;42.606;23.388;2023-03-13T14:22:54;9.70;;;8.70;;
10260;SDS011;5175;42.606;23.388;2023-03-13T14:25:21;10.32;;;9.27;;
10260;SDS011;5175;42.606;23.388;2023-03-13T14:27:50;9.48;;;8.55;;
10260;SDS011;5175;42.606;23.388;2023-03-13T14:30:18;9.63;;;8.70;;
10260;SDS011;5175;42.606;23.388;2023-03-13T14:32:46;9.60;;;8.63;;
10260;SDS011;5175;42.606;23.388;2023-03-13T14:35:14;9.27;;;8.23;;
10260;SDS011;5175;42.606;23.388;2023-03-13T14:37:45;9.23;;;8.18;;
10260;SDS011;5175;42.606;23.388;2023-03-13T14:43:00;8.68;;;7.95;;
10260;SDS011;5175;42.606;23.388;2023-03-13T14:45:28;8.30;;;7.60;;
10260;SDS011;5175;42.606;23.388;2023-03-13T14:47:59;10.15;;;7.53;;
10260;SDS011;5175;42.606;23.388;2023-03-13T14:50:28;10.23;;;7.25;;
10260;SDS011;5175;42.606;23.388;2023-03-13T14:52:58;7.90;;;7.10;;
10260;SDS011;5175;42.606;23.388;2023-03-13T14:55:32;7.55;;;6.85;;
10260;SDS011;5175;42.606;23.388;2023-03-13T14:58:04;10.15;;;7.15;;
10260;SDS011;5175;42.606;23.388;2023-03-13T15:00:51;8.63;;;7.55;;
10260;SDS011;5175;42.606;23.388;2023-03-13T15:03:19;8.23;;;7.38;;
10260;SDS011;5175;42.606;23.388;2023-03-13T15:06:04;8.75;;;7.82;;
10260;SDS011;5175;42.606;23.388;2023-03-13T15:08:34;8.25;;;7.43;;
10260;SDS011;5175;42.606;23.388;2023-03-13T15:11:15;8.77;;;7.60;;
10260;SDS011;5175;42.606;23.388;2023-03-13T15:13:50;9.65;;;7.20;;
10260;SDS011;5175;42.606;23.388;2023-03-13T15:16:17;8.70;;;7.72;;
10260;SDS011;5175;42.606;23.388;2023-03-13T15:18:45;8.77;;;6.95;;
10260;SDS011;5175;42.606;23.388;2023-03-13T15:21:20;8.43;;;7.35;;